createdAt,value
2023-01-31T00:00:00.743Z,4.7
2023-01-31T00:05:00.681Z,4.7
2023-01-31T00:10:00.646Z,4.7
2023-01-31T00:15:00.632Z,4.7
2023-01-31T00:20:00.691Z,4.7
2023-01-31T00:25:00.627Z,4.7
2023-01-31T00:30:00.654Z,4.7
2023-01-31T00:35:00.650Z,4.7
2023-01-31T00:40:00.579Z,4.7
2023-01-31T00:45:00.664Z,4.7
2023-01-31T00:50:00.621Z,4.7
2023-01-31T00:55:00.701Z,4.7
2023-01-31T01:00:00.617Z,4.7
2023-01-31T01:05:00.641Z,4.7
2023-01-31T01:10:00.551Z,4.7
2023-01-31T01:15:00.633Z,4.7
2023-01-31T01:20:00.614Z,4.6
2023-01-31T01:25:00.583Z,4.6
2023-01-31T01:30:00.678Z,4.6
2023-01-31T01:35:00.669Z,4.6
2023-01-31T01:40:00.632Z,4.6
2023-01-31T01:45:00.611Z,4.6
2023-01-31T01:50:00.732Z,4.6
2023-01-31T01:55:00.621Z,4.6
2023-01-31T02:00:00.665Z,4.6
2023-01-31T02:05:00.731Z,4.6
2023-01-31T02:10:00.617Z,4.6
2023-01-31T02:15:00.638Z,4.6
2023-01-31T02:20:00.759Z,4.6
2023-01-31T02:25:00.603Z,4.6
2023-01-31T02:30:00.643Z,4.6
2023-01-31T02:35:00.637Z,4.7
2023-01-31T02:40:00.706Z,4.7
2023-01-31T02:45:00.620Z,4.7
2023-01-31T02:50:00.634Z,4.7
2023-01-31T02:55:00.652Z,4.7
2023-01-31T03:00:00.641Z,4.7
2023-01-31T03:05:00.737Z,4.7
2023-01-31T03:10:00.677Z,4.7
2023-01-31T03:15:00.606Z,4.6
2023-01-31T03:20:00.701Z,4.6
2023-01-31T03:25:00.652Z,4.6
2023-01-31T03:30:00.579Z,4.6
2023-01-31T03:35:00.685Z,4.5
2023-01-31T03:40:00.642Z,4.5
2023-01-31T03:45:00.663Z,4.5
2023-01-31T03:50:00.679Z,4.5
2023-01-31T03:55:00.681Z,4.5
2023-01-31T04:00:00.599Z,4.4
2023-01-31T04:05:00.601Z,4.3
2023-01-31T04:10:00.654Z,4.3
2023-01-31T04:15:00.626Z,4.2
2023-01-31T04:20:00.634Z,4.2
2023-01-31T04:25:00.637Z,4.1
2023-01-31T04:30:00.633Z,4.2
2023-01-31T04:35:02.304Z,4.2
2023-01-31T04:40:00.629Z,4.2
2023-01-31T04:45:00.629Z,4.2
2023-01-31T04:50:00.629Z,4.2
2023-01-31T04:55:00.592Z,4.2
2023-01-31T05:00:00.649Z,4.2
2023-01-31T05:05:00.632Z,4.2
2023-01-31T05:10:00.652Z,4.2
2023-01-31T05:15:00.630Z,4.2
2023-01-31T05:20:00.681Z,4.2
2023-01-31T05:25:00.613Z,4.3
2023-01-31T05:30:00.677Z,4.4
2023-01-31T05:35:00.588Z,4.4
2023-01-31T05:40:00.602Z,4.4
2023-01-31T05:45:00.581Z,4.4
2023-01-31T05:50:01.243Z,4.4
2023-01-31T05:55:00.682Z,4.4
2023-01-31T06:00:00.987Z,4.4
2023-01-31T06:05:00.616Z,4.4
2023-01-31T06:10:01.003Z,4.4
2023-01-31T06:15:00.826Z,4.5
2023-01-31T06:20:00.640Z,4.5
2023-01-31T06:25:00.632Z,4.5
2023-01-31T06:30:00.629Z,4.5
2023-01-31T06:35:00.538Z,4.5
2023-01-31T06:40:00.637Z,4.5
2023-01-31T06:45:00.647Z,4.5
2023-01-31T06:50:00.658Z,4.5
2023-01-31T06:55:00.690Z,4.5
2023-01-31T07:00:00.575Z,4.5
2023-01-31T07:05:00.658Z,4.5
2023-01-31T07:10:00.660Z,4.5
2023-01-31T07:15:00.688Z,4.5
2023-01-31T07:20:00.633Z,4.5
2023-01-31T07:25:00.615Z,4.5
2023-01-31T07:30:00.736Z,4.5
2023-01-31T07:35:00.629Z,4.5
2023-01-31T07:40:00.667Z,4.5
2023-01-31T07:45:07.102Z,4.5
2023-01-31T07:50:00.603Z,4.6
2023-01-31T07:55:00.615Z,4.6
2023-01-31T08:00:00.656Z,4.6
2023-01-31T08:05:00.653Z,4.6
2023-01-31T08:10:00.631Z,4.6
2023-01-31T08:15:00.652Z,4.6
2023-01-31T08:20:00.649Z,4.7
2023-01-31T08:25:00.600Z,4.7
2023-01-31T08:30:00.625Z,4.6
2023-01-31T08:35:00.659Z,4.7
2023-01-31T08:40:00.628Z,4.6
2023-01-31T08:45:00.708Z,4.7
2023-01-31T08:50:00.676Z,4.8
2023-01-31T08:55:00.660Z,4.9
2023-01-31T09:00:00.638Z,5.1
2023-01-31T09:05:00.650Z,5
2023-01-31T09:10:00.682Z,5
2023-01-31T09:15:00.671Z,5.2
2023-01-31T09:20:00.665Z,5.1
2023-01-31T09:25:00.598Z,5.1
2023-01-31T09:30:00.628Z,5
2023-01-31T09:35:00.612Z,5.1
2023-01-31T09:40:00.685Z,5.1
2023-01-31T09:45:00.679Z,5.2
2023-01-31T09:50:00.673Z,5
2023-01-31T09:55:00.640Z,5
2023-01-31T10:00:00.880Z,5.1
2023-01-31T10:05:00.757Z,5.2
2023-01-31T10:10:00.686Z,5.1
2023-01-31T10:15:00.586Z,5
2023-01-31T10:20:00.624Z,5
2023-01-31T10:25:00.617Z,5
2023-01-31T10:30:00.589Z,5.1
2023-01-31T10:35:00.587Z,5
2023-01-31T10:40:00.634Z,5
2023-01-31T10:45:00.627Z,5
2023-01-31T10:50:00.525Z,4.9
2023-01-31T10:55:00.687Z,4.9
2023-01-31T11:00:00.729Z,4.8
2023-01-31T11:05:00.706Z,4.8
2023-01-31T11:10:00.620Z,4.8
2023-01-31T11:15:00.574Z,4.8
2023-01-31T11:20:00.565Z,4.8
2023-01-31T11:25:00.660Z,4.8
2023-01-31T11:30:00.733Z,4.8
2023-01-31T11:35:00.657Z,4.9
2023-01-31T11:40:00.688Z,4.9
2023-01-31T11:45:00.665Z,4.9
2023-01-31T11:50:00.633Z,4.9
2023-01-31T11:55:00.706Z,4.9
2023-01-31T12:00:00.635Z,4.9
2023-01-31T12:05:00.631Z,5
2023-01-31T12:10:00.616Z,4.9
2023-01-31T12:15:00.667Z,4.9
2023-01-31T12:20:00.636Z,4.9
2023-01-31T12:25:00.657Z,4.9
2023-01-31T12:30:00.614Z,4.9
2023-01-31T12:35:03.791Z,4.9
2023-01-31T12:40:01.160Z,5
2023-01-31T12:45:00.544Z,5
2023-01-31T12:50:00.643Z,5
2023-01-31T12:55:00.581Z,5
2023-01-31T13:00:00.701Z,4.9
2023-01-31T13:05:00.604Z,5
2023-01-31T13:10:00.600Z,5.1
2023-01-31T13:15:00.605Z,5.1
2023-01-31T13:20:00.667Z,4.9
2023-01-31T13:25:00.695Z,4.9
2023-01-31T13:30:00.594Z,4.9
2023-01-31T13:35:00.620Z,4.9
2023-01-31T13:40:00.611Z,4.8
2023-01-31T13:45:00.670Z,4.7
2023-01-31T13:50:00.629Z,4.7
2023-01-31T13:55:00.655Z,4.7
2023-01-31T14:00:00.622Z,4.7
2023-01-31T14:05:00.618Z,4.7
2023-01-31T14:10:00.672Z,4.6
2023-01-31T14:15:00.603Z,4.6
2023-01-31T14:20:00.658Z,4.6
2023-01-31T14:25:00.598Z,4.6
2023-01-31T14:30:00.625Z,4.6
2023-01-31T14:35:00.659Z,4.7
2023-01-31T14:40:00.622Z,4.6
2023-01-31T14:45:00.555Z,4.7
2023-01-31T14:50:00.616Z,4.7
2023-01-31T14:55:00.616Z,4.6
2023-01-31T15:00:00.655Z,4.6
2023-01-31T15:05:00.649Z,4.6
2023-01-31T15:10:00.675Z,4.6
2023-01-31T15:15:00.638Z,4.6
2023-01-31T15:20:00.592Z,4.6
2023-01-31T15:25:00.697Z,4.6
2023-01-31T15:30:00.651Z,4.6
2023-01-31T15:35:00.569Z,4.6
2023-01-31T15:40:00.569Z,4.6
2023-01-31T15:45:00.624Z,4.6
2023-01-31T15:50:00.810Z,4.6
2023-01-31T15:55:00.602Z,4.6
2023-01-31T16:00:00.632Z,4.6
2023-01-31T16:05:00.617Z,4.6
2023-01-31T16:10:00.646Z,4.6
2023-01-31T16:15:00.583Z,4.6
2023-01-31T16:20:00.630Z,4.6
2023-01-31T16:25:00.654Z,4.6
2023-01-31T16:30:00.669Z,4.6
2023-01-31T16:35:00.712Z,4.6
2023-01-31T16:40:00.652Z,4.6
2023-01-31T16:45:00.683Z,4.6
2023-01-31T16:50:00.609Z,4.6
2023-01-31T16:55:00.639Z,4.6
2023-01-31T17:00:00.745Z,4.6
2023-01-31T17:05:00.630Z,4.6
2023-01-31T17:10:00.794Z,4.6
2023-01-31T17:15:03.264Z,4.6
2023-01-31T17:20:00.621Z,4.6
2023-01-31T17:25:00.581Z,4.7
2023-01-31T17:30:00.595Z,4.7
2023-01-31T17:35:00.671Z,4.7
2023-01-31T17:40:00.669Z,4.7
2023-01-31T17:45:00.715Z,4.7
2023-01-31T17:50:00.608Z,4.7
2023-01-31T17:55:00.633Z,4.7
2023-01-31T18:00:00.636Z,4.7
2023-01-31T18:05:00.695Z,4.7
2023-01-31T18:10:00.717Z,4.7
2023-01-31T18:15:00.626Z,4.6
2023-01-31T18:20:00.709Z,4.7
2023-01-31T18:25:00.607Z,4.6
2023-01-31T18:30:00.617Z,4.6
2023-01-31T18:35:00.569Z,4.6
2023-01-31T18:40:00.617Z,4.6
2023-01-31T18:45:00.625Z,4.6
2023-01-31T18:50:00.572Z,4.6
2023-01-31T18:55:00.565Z,4.6
2023-01-31T19:00:00.714Z,4.6
2023-01-31T19:05:00.650Z,4.6
2023-01-31T19:10:00.646Z,4.6
2023-01-31T19:15:00.659Z,4.6
2023-01-31T19:20:00.576Z,4.6
2023-01-31T19:25:00.660Z,4.6
2023-01-31T19:30:00.692Z,4.5
2023-01-31T19:35:00.605Z,4.5
2023-01-31T19:40:00.612Z,4.6
2023-01-31T19:45:00.637Z,4.6
2023-01-31T19:50:00.570Z,4.6
2023-01-31T19:55:00.629Z,4.6
2023-01-31T20:00:00.644Z,4.6
2023-01-31T20:05:00.668Z,4.6
2023-01-31T20:10:00.644Z,4.6
2023-01-31T20:15:00.584Z,4.6
2023-01-31T20:20:00.649Z,4.6
2023-01-31T20:25:00.639Z,4.6
2023-01-31T20:30:00.714Z,4.6
2023-01-31T20:35:00.702Z,4.6
2023-01-31T20:40:00.776Z,4.6
2023-01-31T20:45:00.581Z,4.6
2023-01-31T20:50:00.656Z,4.6
2023-01-31T20:55:00.615Z,4.6
2023-01-31T21:00:00.595Z,4.6
2023-01-31T21:05:00.609Z,4.6
2023-01-31T21:10:00.633Z,4.6
2023-01-31T21:15:00.608Z,4.6
2023-01-31T21:20:00.669Z,4.6
2023-01-31T21:25:00.617Z,4.6
2023-01-31T21:30:00.628Z,4.6
2023-01-31T21:35:01.602Z,4.6
2023-01-31T21:40:00.631Z,4.5
2023-01-31T21:45:00.600Z,4.5
2023-01-31T21:50:00.595Z,4.5
2023-01-31T21:55:00.620Z,4.6
2023-01-31T22:00:00.597Z,4.5
2023-01-31T22:05:00.650Z,4.5
2023-01-31T22:10:00.620Z,4.6
2023-01-31T22:15:00.588Z,4.5
2023-01-31T22:20:00.547Z,4.5
2023-01-31T22:25:00.576Z,4.5
2023-01-31T22:30:10.372Z,4.5
2023-01-31T22:35:00.610Z,4.5
2023-01-31T22:40:00.601Z,4.5
2023-01-31T22:45:00.661Z,4.5
2023-01-31T22:50:00.692Z,4.5
2023-01-31T22:55:00.668Z,4.5
2023-01-31T23:00:00.738Z,4.5
2023-01-31T23:05:00.630Z,4.5
2023-01-31T23:10:00.809Z,4.5
2023-01-31T23:15:00.648Z,4.5
2023-01-31T23:20:00.581Z,4.5
2023-01-31T23:25:00.699Z,4.5
2023-01-31T23:30:00.685Z,4.6
2023-01-31T23:35:00.631Z,4.5
2023-01-31T23:40:00.739Z,4.5
2023-01-31T23:45:00.648Z,4.5
2023-01-31T23:50:00.626Z,4.5
2023-01-31T23:55:00.678Z,4.5
